• Join FlightAware (Why Join?)
  • Login
  • US Flag 
12:32AM EDT


 

Airport Tracker/Info


-or-


 

Live Flight TrackerFlight Track Log ✈ UAL4457 ✈ 18-Apr-2013 ✈ KIAH - KLEX

Flight Track Log - Related Links

Times and Time Zones

All times are in EDT time to prevent confusion due to time zone crossing. See the UAL4457 flight status page for this flight to view local times or setup timezone preferences in your user account.

Time Position Orientation Groundspeed Altitude Reporting Facility
EDT Latitude Longitude Course Direction KTS MPH feet Rate Location/Type
04:32PM 29.9778 -95.3367 32° Northeast 202 232 600  Level Houston Center
04:33PM 30.0044 -95.3964 297° West 216 249 3,300 1,560 Climbing Houston Center
04:34PM 30.0450 -95.3900 North 224 258 3,900 1,680 Climbing Houston Center
04:34PM 30.0853 -95.3867 North 281 323 5,200 2,160 Climbing Houston Center
04:35PM 30.3896 -95.0083 35° Northeast  Level FlightAware Approximate
04:35PM 30.1239 -95.3822 North 278 320 6,200  Level Houston Center
04:35PM 30.1664 -95.3767 North 302 348 7,700 2,220 Climbing Houston Center
04:36PM 30.4902 -94.9312 35° Northeast  Level FlightAware Approximate
04:36PM 30.2031 -95.3597 22° Northeast 300 345 8,500  Level Houston Center
04:36PM 30.2369 -95.3222 44° Northeast 321 369 9,700 1,920 Climbing Houston Center
04:37PM 30.5916 -94.8489 32° Northeast  Level FlightAware Approximate
04:37PM 30.2658 -95.2844 48° Northeast 320 368 10,500  Level Houston Center
04:38PM 30.3278 -95.2014 49° Northeast 333 383 12,400 1,620 Climbing Houston Center
04:39PM 30.3933 -95.1122 50° Northeast 353 406 13,900 1,380 Climbing Houston Center
04:40PM 30.4689 -95.0056 51° Northeast 389 448 15,300 1,500 Climbing Houston Center
04:41PM 30.5608 -94.8856 48° Northeast 412 474 17,000 1,560 Climbing Houston Center
04:42PM 30.6583 -94.8111 33° Northeast 419 482 18,600 1,440 Climbing Houston Center
04:43PM 30.7572 -94.7353 33° Northeast 426 490 20,000 1,320 Climbing Houston Center
04:44PM 30.8556 -94.6589 34° Northeast 428 493 21,400 1,380 Climbing Houston Center
04:45PM 30.9581 -94.5792 34° Northeast 425 489 22,800 1,440 Climbing Fort Worth Center
04:46PM 31.0567 -94.5011 34° Northeast 425 489 24,200 1,200 Climbing Fort Worth Center
04:47PM 31.1469 -94.4378 31° Northeast 425 489 25,300 1,080 Climbing Fort Worth Center
04:48PM 31.2472 -94.3542 35° Northeast 432 497 26,400 1,020 Climbing Fort Worth Center
04:49PM 31.3517 -94.2753 33° Northeast 443 510 27,400 1,020 Climbing Fort Worth Center
04:50PM 31.4583 -94.1914 34° Northeast 443 510 28,500 780 Climbing Fort Worth Center
04:51PM 31.5647 -94.1072 34° Northeast 449 517 29,000 240 Climbing Fort Worth Center
04:52PM 31.6750 -94.0203 34° Northeast 459 528 29,000  Level Fort Worth Center
04:53PM 31.7978 -93.9278 33° Northeast 486 559 29,000  Level Fort Worth Center
04:54PM 31.9119 -93.8331 35° Northeast 499 574 29,000 300 Level Fort Worth Center
04:55PM 32.0489 -93.7272 33° Northeast 518 596 29,700 1,440 Climbing Fort Worth Center
04:56PM 32.1528 -93.6444 34° Northeast 513 590 31,900 2,040 Climbing Fort Worth Center
04:57PM 32.2586 -93.5517 37° Northeast 494 568 33,800 1,500 Climbing Fort Worth Center
04:58PM 32.3625 -93.4686 34° Northeast 467 537 34,900 600 Climbing Fort Worth Center
04:59PM 32.4725 -93.3825 33° Northeast 455 524 35,000  Climbing Fort Worth Center
05:00PM 32.5964 -93.2808 35° Northeast 482 555 35,000  Level Fort Worth Center
05:01PM 32.7144 -93.1839 35° Northeast 497 572 35,000  Level Fort Worth Center
05:02PM 32.8342 -93.0869 34° Northeast 510 587 35,000  Level Fort Worth Center
05:03PM 32.9539 -92.9894 34° Northeast 515 593 35,000  Level Fort Worth Center
05:04PM 33.0694 -92.8969 34° Northeast 515 593 35,000  Level Fort Worth Center
05:05PM 33.1831 -92.8044 34° Northeast 510 587 35,000  Level Fort Worth Center
05:07PM 33.4197 -92.5025 47° Northeast 512 589 35,000  Level Memphis Center
05:08PM 33.5097 -92.3628 52° Northeast 518 596 35,000  Level Memphis Center
05:09PM 33.5953 -92.2325 52° Northeast 518 596 35,000  Level Memphis Center
05:10PM 33.6828 -92.1022 51° Northeast 506 582 35,000  Level Memphis Center
05:11PM 33.7658 -91.9714 53° Northeast 506 582 35,100 660 Climbing Memphis Center
05:12PM 33.8508 -91.8406 52° Northeast 501 577 36,400 900 Climbing Memphis Center
05:13PM 33.9294 -91.7142 53° Northeast 488 562 37,000 300 Climbing Memphis Center
05:14PM 34.0122 -91.5850 52° Northeast 476 548 37,000  Level Memphis Center
05:15PM 34.0950 -91.4533 53° Northeast 483 556 37,000  Level Memphis Center
05:16PM 34.1817 -91.3189 52° Northeast 500 575 37,000  Level Memphis Center
05:17PM 34.2575 -91.1992 53° Northeast 500 575 37,000  Level Memphis Center
05:18PM 34.3397 -91.0689 53° Northeast 495 570 37,000  Level Memphis Center
05:20PM 34.4176 -90.9380 54° Northeast  Level FlightAware Approximate
05:20PM 34.5058 -90.8083 54° Northeast 484 557 37,000  Level Memphis Center
05:21PM 34.5875 -90.6750 53° Northeast 484 557 37,000  Level Memphis Center
05:22PM 34.6692 -90.5464 52° Northeast 484 557 37,000  Level Memphis Center
05:23PM 34.7569 -90.4000 54° Northeast 484 557 37,000  Level Memphis Center
05:24PM 34.8403 -90.2633 53° Northeast 491 565 37,000  Level Memphis Center
05:25PM 34.9300 -90.1267 51° Northeast 504 580 37,000  Level Memphis Center
05:26PM 35.0172 -89.9844 53° Northeast 519 597 37,000  Level Memphis Center
05:27PM 35.0814 -89.8192 65° Northeast 526 605 37,000  Level Memphis Center
05:28PM 35.1306 -89.6689 68° East 526 605 37,000  Level Memphis Center
05:29PM 35.1858 -89.5086 67° East 516 594 37,000  Level Memphis Center
05:30PM 35.2411 -89.3503 67° East 510 587 37,000  Level Memphis Center
05:31PM 35.3000 -89.1867 66° East 510 587 37,000  Level Memphis Center
05:32PM 35.3608 -89.0078 67° East 517 595 37,000  Level Memphis Center
05:33PM 35.4194 -88.8411 67° East 522 601 37,000  Level Memphis Center
05:34PM 35.4756 -88.6744 67° East 522 601 37,000  Level Memphis Center
05:35PM 35.5317 -88.5100 67° East 522 601 37,000  Level Memphis Center
05:36PM 35.5875 -88.3478 67° East 517 595 37,000  Level Memphis Center
05:37PM 35.6433 -88.1881 67° East 512 589 37,000  Level Memphis Center
05:38PM 35.6967 -88.0333 67° East 497 572 37,000  Level Memphis Center
05:39PM 35.7481 -87.8758 68° East 497 572 37,000  Level Memphis Center
05:40PM 35.7989 -87.7208 68° East 497 572 37,000  Level Memphis Center
05:41PM 35.8497 -87.5631 68° East 490 564 37,000  Level Memphis Center
05:42PM 35.9025 -87.4047 68° East 490 564 37,000  Level Memphis Center
05:43PM 35.9469 -87.2700 68° East 485 558 37,000  Level Memphis Center
05:44PM 35.9972 -87.1142 68° East 485 558 37,000  Level Memphis Center
05:45PM 36.0472 -86.9581 68° East 485 558 37,000  Level Memphis Center
05:46PM 36.0931 -86.8072 69° East 478 550 37,000  Level Memphis Center
05:47PM 36.1533 -86.6531 64° Northeast 484 557 37,000 -240 Level Memphis Center
05:48PM 36.2431 -86.5253 49° Northeast 484 557 36,600 -900 Descending Memphis Center
05:49PM 36.3372 -86.3972 48° Northeast 489 563 35,300 -1,380 Descending Memphis Center
05:50PM 36.4286 -86.2639 50° Northeast 496 571 33,900 -1,200 Descending Memphis Center
05:51PM 36.5183 -86.1353 49° Northeast 496 571 33,000 -1,200 Descending Memphis Center
05:53PM 36.6822 -85.9008 49° Northeast 489 563 30,500 -1,380 Descending Indianapolis Center
05:54PM 36.7864 -85.7494 49° Northeast 490 564 29,000 -780 Descending Indianapolis Center
05:55PM 36.8747 -85.6200 50° Northeast 486 559 29,000  Level Indianapolis Center
05:56PM 36.9603 -85.4928 50° Northeast 483 556 29,000 -360 Level Indianapolis Center
05:57PM 37.0564 -85.3531 49° Northeast 490 564 28,300 -1,260 Descending Indianapolis Center
05:58PM 37.1422 -85.2242 50° Northeast 483 556 26,500 -2,040 Descending Indianapolis Center
05:59PM 37.2233 -85.1036 50° Northeast 453 521 24,200 -2,280 Descending Indianapolis Center
06:00PM 37.3011 -84.9872 50° Northeast 438 504 21,800 -2,340 Descending Indianapolis Center
06:01PM 37.3764 -84.8736 50° Northeast 423 487 19,500 -2,580 Descending Indianapolis Center
06:03PM 37.4508 -84.7625 50° Northeast 415 478 16,600 -2,880 Descending Indianapolis Center
06:04PM 37.5494 -84.7036 25° Northeast 409 471 13,600 -3,000 Descending Indianapolis Center
06:05PM 37.6689 -84.6625 15° North 378 435 10,500 -2,160 Descending Indianapolis Center
06:06PM 37.7508 -84.6147 25° Northeast 331 381 9,200 -1,620 Descending Indianapolis Center
06:07PM 37.8297 -84.5669 26° Northeast 316 364 7,200 -1,920 Descending Indianapolis Center
06:08PM 37.9100 -84.5278 21° North 312 359 5,300 -1,620 Descending Indianapolis Center
06:09PM 37.9906 -84.4897 20° North 311 358 4,000 -1,320 Descending Indianapolis Center